Time;durP1;ratioP1;P1;durP2;ratioP2;P2;SDS_P1;SDS_P2;PMS_P1;PMS_P2;Temp;Humidity;BMP_temperature;BMP_pressure;BME280_temperature;BME280_humidity;BME280_pressure;Samples;Min_cycle;Max_cycle;Signal;HPM_P1;HPM_P2
2022/05/31 00:00:18;;;;;;;3.30;2.47;;;8.90;99.90;;;;;;5052118;28;20045;-63
2022/05/31 00:02:45;;;;;;;2.72;2.47;;;8.60;99.90;;;;;;5053090;28;20095;-63
2022/05/31 00:05:12;;;;;;;2.58;2.10;;;8.60;99.90;;;;;;5035300;28;20041;-62
2022/05/31 00:07:39;;;;;;;5.43;2.65;;;8.40;99.90;;;;;;5051741;28;20056;-63
2022/05/31 00:10:07;;;;;;;5.88;2.50;;;8.40;99.90;;;;;;5053659;28;20033;-63
2022/05/31 00:12:33;;;;;;;5.35;3.03;;;8.60;99.90;;;;;;5057235;28;20090;-63
2022/05/31 00:15:00;;;;;;;3.53;2.78;;;8.70;99.90;;;;;;5055949;28;20116;-63
2022/05/31 00:17:26;;;;;;;3.58;2.83;;;8.60;99.90;;;;;;5019779;28;20037;-63
2022/05/31 00:19:52;;;;;;;4.78;2.90;;;8.40;99.90;;;;;;5053173;28;20482;-63
2022/05/31 00:22:20;;;;;;;4.18;2.85;;;8.50;99.90;;;;;;5058641;28;20141;-63
2022/05/31 00:24:46;;;;;;;4.38;2.60;;;8.30;99.90;;;;;;5057270;28;20094;-63
2022/05/31 00:27:14;;;;;;;3.72;2.38;;;8.50;99.90;;;;;;5038944;28;20045;-63
2022/05/31 00:33:21;;;;;;;3.13;2.20;;;;;;;;;;5053405;28;20053;-63
2022/05/31 00:35:53;;;;;;;2.90;2.50;;;8.10;99.90;;;;;;5042534;28;20049;-63
2022/05/31 00:38:19;;;;;;;3.08;2.75;;;;;;;;;;5056119;28;20045;-63
2022/05/31 00:40:45;;;;;;;4.13;2.63;;;8.00;99.90;;;;;;5054642;28;20049;-63
2022/05/31 00:43:14;;;;;;;3.67;2.53;;;7.90;99.90;;;;;;5056042;28;20056;-63
2022/05/31 00:45:59;;;;;;;4.15;2.63;;;7.90;99.90;;;;;;5053613;28;20043;-63
2022/05/31 00:48:30;;;;;;;3.33;2.35;;;8.00;99.90;;;;;;5055066;28;20542;-63
2022/05/31 00:51:07;;;;;;;4.05;2.67;;;;;;;;;;5056186;28;20041;-63
2022/05/31 00:53:37;;;;;;;2.90;2.20;;;7.90;99.90;;;;;;5056090;28;20083;-62
2022/05/31 00:56:10;;;;;;;3.63;2.78;;;7.90;99.90;;;;;;5025138;28;20094;-63
2022/05/31 00:58:41;;;;;;;2.65;2.45;;;7.60;99.90;;;;;;5055189;28;20099;-63
2022/05/31 01:01:10;;;;;;;4.50;2.20;;;;;;;;;;5055065;28;20045;-63
2022/05/31 01:03:38;;;;;;;2.42;2.22;;;7.60;99.90;;;;;;5055905;28;20458;-63
2022/05/31 01:06:04;;;;;;;2.65;2.45;;;7.70;99.90;;;;;;5056209;28;20052;-63
2022/05/31 01:08:31;;;;;;;3.92;2.55;;;;;;;;;;5038292;28;20163;-63
2022/05/31 01:10:57;;;;;;;3.13;2.78;;;7.90;99.90;;;;;;5054832;28;20037;-63
2022/05/31 01:13:23;;;;;;;2.60;2.17;;;;;;;;;;5054807;28;20064;-63
2022/05/31 01:15:50;;;;;;;4.90;2.60;;;7.70;99.90;;;;;;5055647;28;20048;-63
2022/05/31 01:18:16;;;;;;;2.90;2.50;;;7.80;99.90;;;;;;5054916;28;20048;-63
2022/05/31 01:20:42;;;;;;;3.15;2.33;;;7.80;99.90;;;;;;5055073;28;20033;-63
2022/05/31 01:23:17;;;;;;;4.57;2.58;;;7.70;99.90;;;;;;5036764;28;20113;-63
2022/05/31 01:25:59;;;;;;;4.78;2.88;;;;;;;;;;5055336;28;20053;-63
2022/05/31 01:28:38;;;;;;;8.15;3.70;;;;;;;;;;5055730;28;20465;-63
2022/05/31 01:31:22;;;;;;;6.30;3.53;;;7.80;99.90;;;;;;5037960;28;20562;-63
2022/05/31 01:33:57;;;;;;;5.32;3.10;;;8.10;99.90;;;;;;5055558;28;20040;-63
2022/05/31 01:36:29;;;;;;;4.55;2.90;;;7.90;99.90;;;;;;5041223;28;20316;-62
2022/05/31 01:39:04;;;;;;;3.70;3.33;;;7.90;99.90;;;;;;5053956;28;20049;-63
2022/05/31 01:41:37;;;;;;;3.55;3.22;;;7.90;99.90;;;;;;5040892;28;20041;-63
2022/05/31 01:44:08;;;;;;;3.40;2.78;;;7.70;99.90;;;;;;5055507;28;20044;-63
2022/05/31 01:46:35;;;;;;;3.33;3.00;;;7.80;99.90;;;;;;5048048;28;20536;-63
2022/05/31 01:49:02;;;;;;;3.40;3.03;;;;;;;;;;5056248;28;20033;-63
2022/05/31 01:51:28;;;;;;;3.78;3.30;;;;;;;;;;5038146;28;20041;-63
2022/05/31 01:53:57;;;;;;;7.05;2.97;;;7.70;99.90;;;;;;5054297;28;20045;-63
2022/05/31 01:56:22;;;;;;;3.35;2.67;;;7.80;99.90;;;;;;5053968;28;20047;-63
2022/05/31 02:02:30;;;;;;;4.05;3.17;;;;;;;;;;5057836;28;20036;-63
2022/05/31 02:04:56;;;;;;;5.13;3.05;;;;;;;;;;5054531;28;20044;-63
2022/05/31 02:07:24;;;;;;;3.30;3.00;;;8.00;99.90;;;;;;5053839;28;20045;-62
2022/05/31 02:09:52;;;;;;;4.78;2.92;;;7.90;99.90;;;;;;5053485;28;20033;-63
2022/05/31 02:12:19;;;;;;;3.58;3.20;;;8.10;99.90;;;;;;5053920;28;20414;-63
2022/05/31 02:14:45;;;;;;;5.13;3.55;;;8.10;99.90;;;;;;5053832;28;20059;-63
2022/05/31 02:17:11;;;;;;;5.30;3.75;;;8.20;99.90;;;;;;5053564;28;20041;-63
2022/05/31 02:19:37;;;;;;;3.28;2.92;;;8.10;99.90;;;;;;5054329;28;20048;-63
2022/05/31 02:22:06;;;;;;;6.13;3.45;;;8.20;99.90;;;;;;5054116;28;20040;-63
2022/05/31 02:24:32;;;;;;;4.72;3.22;;;;;;;;;;5033006;28;20087;-63
2022/05/31 02:26:59;;;;;;;8.13;3.53;;;8.30;99.90;;;;;;5049162;28;20056;-63
2022/05/31 02:29:31;;;;;;;4.65;3.33;;;8.40;99.90;;;;;;5054969;28;20057;-63
2022/05/31 02:31:58;;;;;;;3.75;3.13;;;8.30;99.90;;;;;;5053611;28;20048;-63
2022/05/31 02:34:27;;;;;;;3.45;3.15;;;8.30;99.90;;;;;;5053046;28;20124;-62
2022/05/31 02:36:53;;;;;;;4.25;3.50;;;8.40;99.90;;;;;;5053170;28;20128;-63
2022/05/31 02:39:19;;;;;;;7.65;4.00;;;8.50;99.90;;;;;;5053828;28;20501;-63
2022/05/31 02:41:45;;;;;;;6.38;3.63;;;;;;;;;;5054587;28;20047;-63
2022/05/31 02:44:11;;;;;;;5.93;3.78;;;;;;;;;;5052800;28;20093;-63
2022/05/31 02:46:37;;;;;;;4.30;3.28;;;8.60;99.90;;;;;;5054347;28;20041;-62
2022/05/31 02:49:04;;;;;;;4.00;3.25;;;8.50;99.90;;;;;;5053857;28;20041;-63
2022/05/31 02:51:34;;;;;;;3.60;2.83;;;8.40;99.90;;;;;;5052851;28;20114;-63
2022/05/31 02:54:00;;;;;;;6.03;3.40;;;8.50;99.90;;;;;;5053853;28;20036;-63
2022/05/31 02:56:26;;;;;;;4.07;3.58;;;8.50;99.90;;;;;;5036388;28;20123;-62
2022/05/31 02:58:51;;;;;;;6.65;4.80;;;8.40;99.90;;;;;;5054320;28;20116;-63
2022/05/31 03:01:23;;;;;;;4.80;3.35;;;8.50;99.90;;;;;;5036434;28;20045;-63
2022/05/31 03:03:49;;;;;;;5.20;4.30;;;8.60;99.90;;;;;;5054575;28;20454;-62
2022/05/31 03:06:15;;;;;;;5.05;4.05;;;;;;;;;;5052536;28;20037;-63
2022/05/31 03:08:41;;;;;;;4.40;3.92;;;8.60;99.90;;;;;;5052047;28;20036;-63
2022/05/31 03:11:11;;;;;;;4.82;3.50;;;8.70;99.90;;;;;;5052259;28;20043;-63
2022/05/31 03:13:38;;;;;;;6.70;3.67;;;8.50;99.90;;;;;;5054143;28;20108;-62
2022/05/31 03:16:05;;;;;;;4.35;3.58;;;;;;;;;;5054258;28;20032;-63
2022/05/31 03:18:38;;;;;;;4.88;4.05;;;;;;;;;;5052119;28;20110;-63
2022/05/31 03:21:06;;;;;;;6.13;3.85;;;;;;;;;;5052758;28;20045;-63
2022/05/31 03:23:38;;;;;;;5.45;4.35;;;;;;;;;;5053583;28;20094;-63
2022/05/31 03:26:06;;;;;;;6.20;4.22;;;;;;;;;;5053679;28;20048;-63
2022/05/31 03:28:33;;;;;;;7.57;4.32;;;8.50;99.90;;;;;;5052669;28;20128;-63
2022/05/31 03:31:00;;;;;;;7.25;4.03;;;;;;;;;;5036850;28;20143;-62
2022/05/31 03:33:26;;;;;;;5.28;4.10;;;8.70;99.90;;;;;;5052458;28;20075;-63
2022/05/31 03:35:52;;;;;;;4.43;4.03;;;8.80;99.90;;;;;;5035300;28;20435;-62
2022/05/31 03:38:17;;;;;;;5.63;4.47;;;8.70;99.90;;;;;;5052396;28;20051;-63
2022/05/31 03:41:01;;;;;;;5.72;3.65;;;8.80;99.90;;;;;;5052759;28;20044;-63
2022/05/31 03:43:32;;;;;;;5.07;4.05;;;8.70;99.90;;;;;;5053751;28;20041;-63
2022/05/31 03:45:58;;;;;;;7.13;4.22;;;;;;;;;;5054757;28;20028;-63
2022/05/31 03:48:25;;;;;;;5.45;4.20;;;8.70;99.90;;;;;;5058422;28;20056;-63
2022/05/31 03:51:02;;;;;;;5.07;4.13;;;8.70;99.90;;;;;;5057695;28;20044;-63
2022/05/31 03:53:29;;;;;;;6.53;4.65;;;8.90;99.90;;;;;;5039595;28;20044;-63
2022/05/31 03:55:54;;;;;;;6.80;4.43;;;8.80;99.90;;;;;;5056780;28;20063;-63
2022/05/31 03:58:20;;;;;;;6.03;4.30;;;8.80;99.90;;;;;;5057627;28;20037;-63
2022/05/31 04:00:46;;;;;;;8.00;4.43;;;8.80;99.90;;;;;;5050700;28;20092;-63
2022/05/31 04:03:12;;;;;;;6.35;4.45;;;;;;;;;;5055756;28;20033;-63
2022/05/31 04:05:38;;;;;;;6.95;3.90;;;;;;;;;;5046159;28;20045;-63
2022/05/31 04:08:08;;;;;;;5.90;4.20;;;8.80;99.90;;;;;;5048950;28;20048;-63
2022/05/31 04:10:35;;;;;;;5.72;4.18;;;9.10;99.90;;;;;;5051841;28;20040;-63
2022/05/31 04:13:01;;;;;;;5.30;4.40;;;8.90;99.90;;;;;;5050144;28;20096;-62
2022/05/31 04:15:27;;;;;;;7.40;4.22;;;9.20;99.90;;;;;;5051149;28;20072;-63
2022/05/31 04:17:53;;;;;;;5.88;4.20;;;;;;;;;;5050187;28;20087;-63
2022/05/31 04:20:19;;;;;;;5.55;4.45;;;9.00;99.90;;;;;;5051422;28;20047;-63
2022/05/31 04:22:44;;;;;;;6.60;4.20;;;9.00;99.90;;;;;;5051492;28;20120;-63
2022/05/31 04:27:46;;;;;;;5.82;3.95;;;;;;;;;;5175943;22;20072;-63
2022/05/31 04:30:12;;;;;;;4.70;4.03;;;9.00;99.90;;;;;;5031927;28;20419;-63
2022/05/31 04:32:37;;;;;;;4.75;4.07;;;8.90;99.90;;;;;;5051054;28;20120;-63
2022/05/31 04:35:03;;;;;;;5.13;4.40;;;9.10;99.90;;;;;;5044291;28;20071;-63
2022/05/31 04:37:29;;;;;;;6.15;4.40;;;9.10;99.90;;;;;;5029136;28;20044;-63
2022/05/31 04:39:55;;;;;;;8.77;4.57;;;;;;;;;;5030010;28;20056;-64
2022/05/31 04:42:21;;;;;;;6.85;3.97;;;;;;;;;;5028549;28;20135;-64
2022/05/31 04:44:47;;;;;;;6.03;4.28;;;;;;;;;;5028693;28;20131;-63
2022/05/31 04:47:13;;;;;;;6.18;4.43;;;;;;;;;;5012162;28;20049;-63
2022/05/31 04:49:39;;;;;;;6.68;4.47;;;;;;;;;;5035534;28;20087;-63
2022/05/31 04:52:05;;;;;;;7.85;4.65;;;;;;;;;;5035379;28;20581;-62
2022/05/31 04:54:31;;;;;;;5.55;4.47;;;;;;;;;;5041407;28;20075;-64
2022/05/31 04:57:00;;;;;;;9.38;4.78;;;9.30;99.90;;;;;;5027447;28;20080;-64
2022/05/31 04:59:26;;;;;;;7.68;4.80;;;;;;;;;;5042620;28;20115;-64
2022/05/31 05:01:52;;;;;;;7.18;4.53;;;;;;;;;;5031095;28;20116;-64
2022/05/31 05:04:18;;;;;;;9.43;5.95;;;;;;;;;;5046071;28;20466;-64
2022/05/31 05:06:44;;;;;;;6.05;4.40;;;;;;;;;;5046823;28;20041;-64
2022/05/31 05:09:10;;;;;;;5.20;4.03;;;;;;;;;;5046493;28;20043;-63
2022/05/31 05:11:36;;;;;;;4.97;4.22;;;;;;;;;;5046513;28;20060;-63
2022/05/31 05:14:02;;;;;;;4.80;4.05;;;;;;;;;;5029187;28;20071;-64
2022/05/31 05:16:28;;;;;;;5.18;4.63;;;9.60;99.90;;;;;;5042695;28;20118;-64
2022/05/31 05:18:54;;;;;;;5.95;4.25;;;;;;;;;;5046950;28;20045;-64
2022/05/31 05:21:20;;;;;;;6.88;4.25;;;;;;;;;;5046389;28;20040;-66
2022/05/31 05:23:46;;;;;;;7.07;4.43;;;;;;;;;;5045859;28;20071;-64
2022/05/31 05:26:12;;;;;;;5.95;4.57;;;;;;;;;;5028009;28;20049;-64
2022/05/31 05:31:33;;;;;;;7.87;4.50;;;9.60;99.90;;;;;;5031070;28;20111;-64
2022/05/31 05:34:00;;;;;;;9.18;5.22;;;9.60;99.90;;;;;;5049968;28;20044;-64
2022/05/31 05:36:26;;;;;;;5.30;4.25;;;;;;;;;;5032169;28;20080;-65
2022/05/31 05:38:53;;;;;;;5.95;4.10;;;;;;;;;;5046322;28;20099;-65
2022/05/31 05:41:20;;;;;;;7.18;4.22;;;;;;;;;;5028909;28;20449;-64
2022/05/31 05:43:46;;;;;;;11.27;5.43;;;10.10;99.90;;;;;;5010529;28;20511;-64
2022/05/31 05:46:23;;;;;;;7.22;4.07;;;10.10;99.90;;;;;;5010817;28;20111;-65
2022/05/31 05:48:49;;;;;;;5.65;4.78;;;;;;;;;;5013403;28;20092;-65
2022/05/31 05:51:18;;;;;;;4.40;3.53;;;10.00;99.90;;;;;;5023734;28;20095;-64
2022/05/31 05:53:44;;;;;;;6.85;4.22;;;10.00;99.90;;;;;;5023351;28;20051;-64
2022/05/31 05:56:11;;;;;;;5.68;4.38;;;10.10;99.90;;;;;;5029345;28;20045;-64
2022/05/31 05:58:37;;;;;;;5.72;4.75;;;;;;;;;;5050709;28;20068;-64
2022/05/31 06:01:06;;;;;;;9.45;5.07;;;10.10;99.90;;;;;;5036179;28;20053;-64
2022/05/31 06:03:50;;;;;;;6.60;5.10;;;10.00;99.90;;;;;;5023715;28;20064;-64
2022/05/31 06:06:17;;;;;;;5.30;3.70;;;10.30;99.90;;;;;;5030346;28;20041;-65
2022/05/31 06:08:52;;;;;;;5.40;4.22;;;10.50;99.90;;;;;;5031183;28;20049;-64
2022/05/31 06:11:22;;;;;;;7.13;5.03;;;10.30;99.90;;;;;;5002784;28;20045;-64
2022/05/31 06:13:58;;;;;;;6.00;4.63;;;10.40;99.90;;;;;;5012407;28;20583;-65
2022/05/31 06:16:33;;;;;;;9.40;4.50;;;10.50;99.90;;;;;;5029771;28;20477;-64
2022/05/31 06:19:08;;;;;;;5.38;4.30;;;10.60;99.90;;;;;;5036231;28;20041;-64
2022/05/31 06:21:34;;;;;;;4.95;4.45;;;10.60;99.90;;;;;;5049843;28;20049;-65
2022/05/31 06:24:01;;;;;;;6.03;3.88;;;10.60;99.90;;;;;;5012158;28;20049;-65
2022/05/31 06:26:28;;;;;;;5.75;4.32;;;10.70;99.90;;;;;;5029344;28;20057;-65
2022/05/31 06:28:54;;;;;;;6.28;4.35;;;10.70;99.90;;;;;;5040403;28;20518;-64
2022/05/31 06:31:20;;;;;;;5.28;4.32;;;10.80;99.90;;;;;;5022408;28;20041;-64
2022/05/31 06:33:45;;;;;;;7.15;4.88;;;10.80;99.90;;;;;;5034044;28;20043;-64
2022/05/31 06:36:11;;;;;;;6.78;4.10;;;;;;;;;;5042233;28;20049;-64
2022/05/31 06:38:37;;;;;;;8.07;4.32;;;;;;;;;;5032610;28;20037;-64
2022/05/31 06:41:04;;;;;;;6.45;4.20;;;;;;;;;;5015181;28;20460;-65
2022/05/31 06:43:30;;;;;;;5.28;4.18;;;11.10;99.90;;;;;;5030538;28;20045;-65
2022/05/31 06:45:56;;;;;;;5.93;3.78;;;11.30;99.90;;;;;;5052667;28;20044;-64
2022/05/31 06:48:22;;;;;;;4.40;4.00;;;11.20;99.90;;;;;;5034989;28;20040;-65
2022/05/31 06:50:47;;;;;;;6.65;4.65;;;11.40;99.90;;;;;;5047860;28;20041;-64
2022/05/31 06:58:43;;;;;;;;;;;12.00;99.90;;;;;;5033105;28;20050;-65
2022/05/31 07:01:09;;;;;;;5.15;3.70;;;12.20;99.90;;;;;;5031575;28;20390;-64
2022/05/31 07:03:34;;;;;;;4.70;3.50;;;12.30;99.90;;;;;;5049691;28;20037;-64
2022/05/31 07:06:01;;;;;;;5.03;2.90;;;;;;;;;;5033988;28;20040;-65
2022/05/31 07:08:26;;;;;;;3.92;2.75;;;12.60;99.90;;;;;;5034378;28;20363;-65
2022/05/31 07:10:52;;;;;;;5.25;2.67;;;;;;;;;;5052311;28;20040;-64
2022/05/31 07:13:20;;;;;;;4.88;3.45;;;12.70;99.90;;;;;;5052391;28;20041;-64
2022/05/31 07:15:46;;;;;;;5.25;3.42;;;;;;;;;;5052216;28;20110;-64
2022/05/31 07:18:12;;;;;;;4.70;2.40;;;13.00;99.90;;;;;;5051946;28;20045;-65
2022/05/31 07:20:37;;;;;;;5.43;3.22;;;13.20;99.90;;;;;;5042529;28;20483;-65
2022/05/31 07:23:03;;;;;;;5.40;3.05;;;;;;;;;;5050495;28;20052;-65
2022/05/31 07:25:29;;;;;;;4.45;2.50;;;;;;;;;;5050853;28;20446;-65
2022/05/31 07:27:55;;;;;;;6.43;3.15;;;13.30;99.90;;;;;;5050944;28;20179;-65
2022/05/31 07:30:21;;;;;;;4.80;2.95;;;;;;;;;;5051157;28;20048;-65
2022/05/31 07:32:47;;;;;;;6.35;3.63;;;13.40;99.90;;;;;;5050937;28;20418;-66
2022/05/31 07:35:13;;;;;;;3.92;2.75;;;13.60;99.90;;;;;;5049947;28;20037;-67
2022/05/31 07:37:39;;;;;;;2.80;2.47;;;13.60;99.90;;;;;;5032225;28;20045;-65
2022/05/31 07:40:05;;;;;;;3.67;2.58;;;13.80;99.90;;;;;;5050961;28;20041;-65
2022/05/31 07:42:31;;;;;;;4.82;2.95;;;13.80;99.90;;;;;;5049900;28;20033;-66
2022/05/31 07:44:57;;;;;;;4.50;3.17;;;13.90;99.90;;;;;;5032177;28;20056;-65
2022/05/31 07:47:23;;;;;;;3.75;2.75;;;14.00;99.90;;;;;;5028184;28;20041;-65
2022/05/31 07:49:49;;;;;;;5.82;2.97;;;14.00;99.90;;;;;;5049056;28;20051;-66
2022/05/31 07:52:15;;;;;;;7.78;3.55;;;14.10;99.90;;;;;;5032375;28;20037;-65
2022/05/31 07:54:41;;;;;;;6.07;3.65;;;;;;;;;;5049548;28;20048;-65
2022/05/31 07:57:07;;;;;;;5.40;3.38;;;14.20;99.90;;;;;;5050139;28;20049;-65
2022/05/31 07:59:34;;;;;;;4.45;2.83;;;14.30;99.90;;;;;;5049941;28;20041;-66
2022/05/31 08:02:01;;;;;;;5.60;3.67;;;14.30;99.90;;;;;;5049289;28;20025;-65
2022/05/31 08:04:27;;;;;;;6.75;4.18;;;14.50;99.90;;;;;;5048547;28;20036;-66
2022/05/31 08:06:57;;;;;;;5.32;3.80;;;;;;;;;;5031760;28;20390;-65
2022/05/31 08:09:23;;;;;;;6.78;3.97;;;14.70;99.90;;;;;;5049774;28;20094;-65
2022/05/31 08:11:49;;;;;;;7.90;3.65;;;14.70;99.90;;;;;;5050153;28;20033;-65
2022/05/31 08:14:14;;;;;;;4.68;3.33;;;14.70;99.90;;;;;;5049392;28;20068;-65
2022/05/31 08:16:40;;;;;;;9.25;3.72;;;14.70;99.90;;;;;;5032146;28;20045;-65
2022/05/31 08:19:05;;;;;;;4.22;3.78;;;14.70;99.90;;;;;;5049764;28;20407;-66
2022/05/31 08:21:32;;;;;;;7.68;3.95;;;14.90;99.90;;;;;;5032469;28;20040;-65
2022/05/31 08:24:23;;;;;;;8.32;3.60;;;14.80;99.90;;;;;;5041762;28;20108;-66
2022/05/31 08:26:49;;;;;;;8.43;4.40;;;14.90;99.90;;;;;;5046415;28;20508;-65
2022/05/31 08:29:16;;;;;;;7.43;4.72;;;15.20;99.90;;;;;;5028461;28;20148;-66
2022/05/31 08:31:42;;;;;;;7.63;3.92;;;15.20;99.90;;;;;;5029056;28;20052;-66
2022/05/31 08:34:08;;;;;;;7.53;4.05;;;15.30;99.90;;;;;;5050702;28;20037;-65
2022/05/31 08:36:34;;;;;;;7.25;4.75;;;15.30;99.90;;;;;;5032378;28;20397;-65
2022/05/31 08:39:01;;;;;;;5.85;3.95;;;15.30;99.90;;;;;;5049876;28;20040;-66
2022/05/31 08:41:32;;;;;;;8.25;4.32;;;15.40;99.90;;;;;;5049974;28;20525;-65
2022/05/31 08:43:59;;;;;;;8.93;3.92;;;15.50;99.90;;;;;;5031976;28;20049;-66
2022/05/31 08:46:46;;;;;;;8.45;4.15;;;15.60;99.90;;;;;;5021803;28;20045;-66
2022/05/31 08:52:28;;;;;;;7.30;5.20;;;15.50;99.90;;;;;;5031430;28;20040;-65
2022/05/31 08:58:01;;;;;;;8.77;4.07;;;15.60;99.90;;;;;;5022309;28;20045;-65
2022/05/31 09:00:31;;;;;;;10.70;4.80;;;15.70;99.90;;;;;;5049661;28;20044;-66
2022/05/31 09:03:27;;;;;;;6.90;3.65;;;15.70;99.90;;;;;;5049500;28;20384;-66
2022/05/31 09:06:05;;;;;;;8.93;4.20;;;15.70;99.90;;;;;;5018303;28;20499;-67
2022/05/31 09:08:48;;;;;;;5.07;3.58;;;15.80;99.90;;;;;;5031701;28;20454;-66
2022/05/31 09:11:37;;;;;;;6.95;4.72;;;15.90;99.90;;;;;;5030619;28;20234;-66
2022/05/31 09:14:19;;;;;;;8.52;3.97;;;15.90;99.90;;;;;;5050095;28;20037;-65
2022/05/31 09:16:47;;;;;;;10.25;4.50;;;15.80;99.90;;;;;;5052588;28;20483;-66
2022/05/31 09:19:20;;;;;;;6.72;3.78;;;15.80;99.90;;;;;;5034568;28;20548;-65
2022/05/31 09:21:49;;;;;;;11.13;4.03;;;15.80;99.90;;;;;;5034616;28;20056;-64
2022/05/31 09:24:18;;;;;;;9.32;3.63;;;15.70;99.90;;;;;;5052982;28;20071;-65
2022/05/31 09:26:53;;;;;;;5.80;3.50;;;15.60;99.90;;;;;;5050167;28;20053;-65
2022/05/31 09:29:25;;;;;;;;;;;15.70;99.90;;;;;;5035317;28;20044;-65
2022/05/31 09:32:12;;;;;;;9.27;3.88;;;15.60;99.90;;;;;;5052327;28;20018;-66
2022/05/31 09:35:07;;;;;;;4.13;3.25;;;15.60;99.90;;;;;;5052431;28;20040;-65
2022/05/31 09:37:38;;;;;;;6.43;3.10;;;15.70;99.90;;;;;;5034914;28;20169;-66
2022/05/31 09:40:22;;;;;;;7.47;4.35;;;15.60;99.90;;;;;;5032321;28;20076;-66
2022/05/31 09:43:08;;;;;;;7.15;3.30;;;15.70;99.90;;;;;;5050971;28;20056;-65
2022/05/31 09:45:39;;;;;;;7.80;4.50;;;15.70;99.90;;;;;;5051083;28;20080;-65
2022/05/31 09:48:05;;;;;;;7.63;4.03;;;15.90;99.90;;;;;;5050113;28;20037;-65
2022/05/31 09:50:31;;;;;;;8.82;4.70;;;15.80;99.90;;;;;;5034172;28;20029;-66
2022/05/31 09:52:58;;;;;;;9.80;4.68;;;16.00;99.90;;;;;;5051849;28;20065;-65
2022/05/31 09:58:21;;;;;;;;;;;16.00;99.90;;;;;;5033843;28;20049;-65
2022/05/31 10:01:00;;;;;;;6.68;3.85;;;15.90;99.90;;;;;;5052263;28;19920;-65
2022/05/31 10:03:38;;;;;;;10.23;4.38;;;15.60;99.90;;;;;;5031857;28;20048;-65
2022/05/31 10:06:19;;;;;;;11.98;4.07;;;15.90;99.90;;;;;;5031950;28;20051;-65
2022/05/31 10:08:47;;;;;;;7.80;4.10;;;16.00;99.90;;;;;;5051738;28;20111;-65
2022/05/31 10:11:22;;;;;;;5.38;3.40;;;15.90;99.90;;;;;;5051761;28;20127;-65
2022/05/31 10:14:09;;;;;;;7.13;3.95;;;16.00;99.90;;;;;;5051603;28;20045;-65
2022/05/31 10:16:37;;;;;;;7.47;3.60;;;16.00;99.90;;;;;;5051062;28;20406;-64
2022/05/31 10:19:06;;;;;;;8.35;3.58;;;16.20;99.90;;;;;;5049654;28;20033;-65
2022/05/31 10:21:32;;;;;;;9.15;4.40;;;;;;;;;;5051420;28;20033;-65
2022/05/31 10:24:20;;;;;;;7.00;3.70;;;16.20;99.90;;;;;;5028579;28;20041;-65
2022/05/31 10:27:11;;;;;;;11.43;4.57;;;16.10;99.90;;;;;;5039835;28;20088;-65
2022/05/31 10:29:51;;;;;;;6.65;3.95;;;16.30;99.90;;;;;;5024293;28;20072;-65
2022/05/31 10:32:40;;;;;;;11.57;4.70;;;16.10;99.90;;;;;;5041203;28;20037;-65
2022/05/31 10:35:17;;;;;;;7.15;4.65;;;16.00;99.90;;;;;;5022094;28;20545;-65
2022/05/31 10:37:59;;;;;;;7.95;5.10;;;15.90;99.90;;;;;;5022369;28;20179;-65
2022/05/31 10:41:00;;;;;;;8.25;4.72;;;16.00;99.90;;;;;;5022620;28;20099;-65
2022/05/31 10:44:05;;;;;;;6.38;3.58;;;15.90;99.90;;;;;;5025563;28;20076;-64
2022/05/31 10:46:34;;;;;;;7.35;3.80;;;16.00;99.90;;;;;;4933302;29;20051;-65
2022/05/31 10:49:04;;;;;;;7.00;4.25;;;16.00;99.90;;;;;;5033408;28;20427;-65
2022/05/31 10:51:50;;;;;;;10.23;4.65;;;16.00;99.90;;;;;;5033351;28;20037;-65
2022/05/31 10:55:01;;;;;;;6.50;4.18;;;16.00;99.90;;;;;;5047841;28;20503;-65
2022/05/31 10:57:45;;;;;;;5.50;4.22;;;16.20;99.90;;;;;;5024427;28;20048;-65
2022/05/31 11:00:26;;;;;;;7.80;3.45;;;16.30;99.90;;;;;;5031895;28;20051;-65
2022/05/31 11:03:21;;;;;;;8.18;3.78;;;16.30;99.90;;;;;;5033210;28;20036;-65
2022/05/31 11:06:10;;;;;;;6.20;3.90;;;16.40;99.90;;;;;;4979158;28;20049;-65
2022/05/31 11:12:11;;;;;;;8.30;4.30;;;16.40;99.90;;;;;;5032493;28;20436;-65
2022/05/31 11:15:07;;;;;;;6.63;4.13;;;16.50;99.90;;;;;;5032436;28;20069;-65
2022/05/31 11:17:48;;;;;;;;;;;16.60;99.90;;;;;;5032001;28;20041;-65
2022/05/31 11:20:13;;;;;;;9.15;4.32;;;16.50;99.90;;;;;;5050719;28;19920;-65
2022/05/31 11:22:45;;;;;;;10.75;4.30;;;16.50;99.90;;;;;;5032587;28;20043;-65
2022/05/31 11:25:38;;;;;;;10.82;3.85;;;16.50;99.90;;;;;;5050177;28;20033;-65
2022/05/31 11:28:26;;;;;;;9.10;3.75;;;16.50;99.90;;;;;;5029873;28;20048;-65
2022/05/31 11:31:04;;;;;;;7.15;3.35;;;16.40;99.90;;;;;;5049082;28;20049;-64
2022/05/31 11:33:55;;;;;;;7.63;4.00;;;16.40;99.90;;;;;;5050411;28;20029;-65
2022/05/31 11:36:54;;;;;;;5.88;3.17;;;16.40;99.90;;;;;;5047906;28;20410;-65
2022/05/31 11:39:53;;;;;;;4.85;4.22;;;16.30;99.90;;;;;;5050194;28;20038;-65
2022/05/31 11:42:40;;;;;;;7.03;4.20;;;16.30;99.90;;;;;;5032684;28;20076;-64
2022/05/31 11:45:29;;;;;;;5.38;3.80;;;16.20;99.90;;;;;;5032304;28;20040;-64
2022/05/31 11:48:23;;;;;;;11.52;4.32;;;16.10;99.90;;;;;;5033000;28;20041;-65
2022/05/31 11:51:02;;;;;;;11.35;4.55;;;16.00;99.90;;;;;;5050767;28;20052;-65
2022/05/31 11:53:36;;;;;;;15.23;5.15;;;15.90;99.90;;;;;;5032514;28;20094;-65
2022/05/31 11:56:07;;;;;;;10.00;4.68;;;15.90;99.90;;;;;;5032207;28;20037;-65
2022/05/31 11:59:00;;;;;;;7.65;4.55;;;15.90;99.90;;;;;;5032301;28;20051;-65
2022/05/31 12:01:32;;;;;;;7.95;4.53;;;15.90;99.90;;;;;;5017677;28;20049;-65
2022/05/31 12:04:25;;;;;;;5.85;3.92;;;15.80;99.90;;;;;;5046410;28;20040;-65
2022/05/31 12:06:53;;;;;;;8.80;4.05;;;15.90;99.90;;;;;;5029620;28;20120;-65
2022/05/31 12:09:41;;;;;;;4.82;3.63;;;16.00;99.90;;;;;;5050589;28;20048;-65
2022/05/31 12:12:16;;;;;;;9.63;4.20;;;16.00;99.90;;;;;;5032736;28;20052;-65
2022/05/31 12:14:47;;;;;;;;;;;15.90;99.90;;;;;;5051043;28;20037;-65
2022/05/31 12:17:16;;;;;;;8.02;4.22;;;16.00;99.90;;;;;;5050647;28;19921;-65
2022/05/31 12:20:20;;;;;;;5.38;3.88;;;16.00;99.90;;;;;;5032788;28;20056;-65
2022/05/31 12:22:56;;;;;;;7.03;3.63;;;16.10;99.90;;;;;;5031525;28;20507;-65
2022/05/31 12:25:30;;;;;;;6.97;3.60;;;16.00;99.90;;;;;;5032435;28;20131;-65
2022/05/31 12:28:06;;;;;;;8.15;3.67;;;16.00;99.90;;;;;;5032103;28;20052;-65
2022/05/31 12:30:43;;;;;;;8.40;4.70;;;16.30;99.90;;;;;;5031829;28;20099;-65
2022/05/31 12:33:40;;;;;;;7.90;4.57;;;16.20;99.90;;;;;;5032612;28;20040;-65
2022/05/31 12:36:09;;;;;;;9.05;5.40;;;16.20;99.90;;;;;;5048668;28;20391;-65
2022/05/31 12:39:04;;;;;;;9.32;4.72;;;16.20;99.90;;;;;;5032532;28;20032;-65
2022/05/31 12:41:36;;;;;;;;;;;16.10;99.90;;;;;;5031605;28;20118;-65
2022/05/31 12:44:07;;;;;;;9.93;5.13;;;16.00;99.90;;;;;;5032719;28;20037;-65
2022/05/31 12:46:40;;;;;;;8.35;4.93;;;15.90;99.90;;;;;;5030855;28;20053;-65
2022/05/31 12:49:30;;;;;;;12.48;5.68;;;15.80;99.90;;;;;;5049749;28;20621;-65
2022/05/31 12:54:53;;;;;;;;;;;16.60;99.90;;;;;;5032256;28;20049;-65
2022/05/31 12:58:26;;;;;;;10.27;5.43;;;15.60;99.90;;;;;;5031890;28;19916;-65
2022/05/31 13:00:35;;;;;;;6.85;5.30;;;15.80;99.90;;;;;;5031218;28;20499;-65
2022/05/31 13:03:25;;;;;;;9.27;5.95;;;15.60;99.90;;;;;;5034424;28;20546;-65
2022/05/31 13:05:59;;;;;;;7.07;5.15;;;17.10;99.90;;;;;;5052339;28;20037;-65
2022/05/31 13:20:26;;;;;;;10.25;6.20;;;15.40;99.90;;;;;;5029885;28;20131;-65
2022/05/31 13:23:21;;;;;;;8.18;6.10;;;15.30;99.90;;;;;;5034241;28;20056;-65
2022/05/31 13:25:46;;;;;;;10.97;5.83;;;15.30;99.90;;;;;;5025316;28;20116;-65
2022/05/31 13:28:26;;;;;;;6.85;4.75;;;15.40;99.90;;;;;;5033576;28;20145;-65
2022/05/31 13:30:57;;;;;;;8.63;4.55;;;15.50;99.90;;;;;;5032741;28;20051;-65
2022/05/31 13:33:23;;;;;;;9.45;4.78;;;15.40;99.90;;;;;;5034106;28;20115;-65
2022/05/31 13:36:02;;;;;;;10.02;4.93;;;15.30;99.90;;;;;;5051803;28;20387;-65
2022/05/31 13:38:31;;;;;;;8.60;4.30;;;15.40;99.90;;;;;;5033881;28;20056;-65
2022/05/31 13:40:59;;;;;;;9.07;4.60;;;15.30;99.90;;;;;;5033546;28;20076;-65
2022/05/31 13:43:29;;;;;;;8.07;4.72;;;15.30;99.90;;;;;;5050759;28;20041;-65
2022/05/31 13:46:02;;;;;;;8.73;4.35;;;15.40;99.90;;;;;;5030290;28;20068;-65
2022/05/31 13:48:33;;;;;;;10.07;4.80;;;15.40;99.90;;;;;;5051546;28;20068;-65
2022/05/31 13:51:06;;;;;;;8.75;4.55;;;15.40;99.90;;;;;;5034058;28;20376;-65
2022/05/31 13:53:39;;;;;;;9.20;4.35;;;15.40;99.90;;;;;;5017505;28;20119;-65
2022/05/31 13:56:05;;;;;;;6.55;3.72;;;15.50;99.90;;;;;;5025390;28;20112;-65
2022/05/31 13:58:34;;;;;;;6.32;3.92;;;15.50;99.90;;;;;;5048779;28;20175;-65
2022/05/31 14:01:01;;;;;;;8.02;3.70;;;15.50;99.90;;;;;;5034052;28;20131;-65
2022/05/31 14:03:33;;;;;;;8.05;3.20;;;15.50;99.90;;;;;;5033487;28;20063;-65
2022/05/31 14:06:12;;;;;;;4.70;2.88;;;15.50;99.90;;;;;;5032043;28;20048;-65
2022/05/31 14:08:51;;;;;;;9.43;4.25;;;15.40;99.90;;;;;;5051655;28;20503;-65
2022/05/31 14:11:41;;;;;;;6.68;4.07;;;15.50;99.90;;;;;;5033538;28;20480;-65
2022/05/31 14:14:29;;;;;;;8.65;3.88;;;15.50;99.90;;;;;;5028586;28;20053;-65
2022/05/31 14:16:57;;;;;;;5.53;3.58;;;15.50;99.90;;;;;;5051080;28;20048;-65
2022/05/31 14:19:26;;;;;;;7.15;3.65;;;15.50;99.90;;;;;;5033448;28;20084;-65